createdAt,value
2022-11-27T00:01:29.583Z,-0.50
2022-11-27T00:03:57.289Z,-0.50
2022-11-27T00:06:28.331Z,-0.50
2022-11-27T00:09:04.836Z,-0.50
2022-11-27T00:11:32.630Z,-0.40
2022-11-27T00:14:00.921Z,-0.30
2022-11-27T00:16:28.877Z,-0.30
2022-11-27T00:18:56.592Z,-0.30
2022-11-27T00:21:30.084Z,-0.20
2022-11-27T00:23:59.302Z,0.10
2022-11-27T00:26:27.790Z,0.10
2022-11-27T00:28:56.014Z,0.10
2022-11-27T00:31:31.548Z,0.10
2022-11-27T00:34:01.182Z,0.00
2022-11-27T00:36:29.736Z,-0.20
2022-11-27T00:38:56.938Z,-0.10
2022-11-27T00:41:27.382Z,0.00
2022-11-27T00:43:55.134Z,0.00
2022-11-27T00:46:28.981Z,0.00
2022-11-27T00:48:58.074Z,-0.20
2022-11-27T00:51:25.980Z,-0.30
2022-11-27T00:53:53.990Z,-0.30
2022-11-27T00:56:35.889Z,0.00
2022-11-27T00:59:05.166Z,0.20
2022-11-27T01:01:35.972Z,0.20
2022-11-27T01:04:05.032Z,0.00
2022-11-27T01:06:32.412Z,-0.30
2022-11-27T01:09:00.009Z,-0.40
2022-11-27T01:11:29.864Z,-0.50
2022-11-27T01:13:59.413Z,-0.60
2022-11-27T01:16:29.027Z,-0.70
2022-11-27T01:18:58.951Z,-0.60
2022-11-27T01:21:28.938Z,-0.60
2022-11-27T01:23:56.534Z,-0.40
2022-11-27T01:26:23.975Z,-0.40
2022-11-27T01:28:56.189Z,-0.40
2022-11-27T01:31:26.483Z,-0.20
2022-11-27T01:33:55.518Z,-0.30
2022-11-27T01:36:23.395Z,-0.40
2022-11-27T01:38:51.006Z,-0.50
2022-11-27T01:41:33.352Z,-0.40
2022-11-27T01:44:02.219Z,-0.30
2022-11-27T01:46:38.354Z,-0.40
2022-11-27T01:49:11.614Z,-0.50
2022-11-27T01:51:51.666Z,-0.50
2022-11-27T01:54:21.227Z,-0.60
2022-11-27T01:56:52.713Z,-0.50
2022-11-27T01:59:19.973Z,-0.40
2022-11-27T02:01:47.231Z,-0.50
2022-11-27T02:04:14.811Z,-0.50
2022-11-27T02:06:41.971Z,-0.40
2022-11-27T02:09:09.217Z,-0.30
2022-11-27T02:12:10.637Z,-0.40
2022-11-27T02:14:51.765Z,-0.40
2022-11-27T02:17:46.995Z,-0.40
2022-11-27T02:20:19.979Z,-0.40
2022-11-27T02:23:12.119Z,-0.30
2022-11-27T02:25:47.220Z,-0.40
2022-11-27T02:28:45.152Z,-0.60
2022-11-27T02:31:22.103Z,-0.50
2022-11-27T02:33:54.323Z,-0.60
2022-11-27T02:36:27.775Z,-0.60
2022-11-27T02:39:25.013Z,-0.50
2022-11-27T02:42:02.490Z,-0.50
2022-11-27T02:44:33.855Z,-0.50
2022-11-27T02:47:01.777Z,-0.40
2022-11-27T02:49:29.355Z,-0.40
2022-11-27T02:51:59.222Z,-0.40
2022-11-27T02:54:31.162Z,-0.30
2022-11-27T02:57:01.963Z,-0.20
2022-11-27T02:59:31.822Z,-0.10
2022-11-27T03:02:05.663Z,-0.20
2022-11-27T03:04:41.490Z,-0.10
2022-11-27T03:07:16.583Z,-0.20
2022-11-27T03:09:49.933Z,-0.40
2022-11-27T03:12:18.770Z,-0.50
2022-11-27T03:14:47.931Z,-0.50
2022-11-27T03:17:23.970Z,-0.50
2022-11-27T03:20:17.263Z,-0.60
2022-11-27T03:22:44.507Z,-0.50
2022-11-27T03:25:11.798Z,-0.30
2022-11-27T03:27:43.766Z,-0.30
2022-11-27T03:30:12.326Z,-0.40
2022-11-27T03:32:39.678Z,-0.40
2022-11-27T03:35:09.870Z,-0.50
2022-11-27T03:37:37.514Z,-0.70
2022-11-27T03:40:06.726Z,-0.80
2022-11-27T03:42:56.686Z,-0.80
2022-11-27T03:45:30.180Z,-0.70
2022-11-27T03:48:13.359Z,-0.80
2022-11-27T03:51:10.947Z,-1.00
2022-11-27T03:53:47.593Z,-1.10
2022-11-27T03:56:43.307Z,-1.20
2022-11-27T03:59:27.393Z,-1.30
2022-11-27T04:01:54.612Z,-1.40
2022-11-27T04:04:21.936Z,-1.30
2022-11-27T04:06:49.126Z,-1.40
2022-11-27T04:09:16.312Z,-1.40
2022-11-27T04:11:43.647Z,-1.40
2022-11-27T04:14:10.752Z,-1.30
2022-11-27T04:16:37.939Z,-1.20
2022-11-27T04:19:05.117Z,-1.20
2022-11-27T04:21:32.232Z,-1.20
2022-11-27T04:23:59.321Z,-1.20
2022-11-27T04:26:26.526Z,-1.20
2022-11-27T04:28:53.608Z,-1.20
2022-11-27T04:31:20.865Z,-1.20
2022-11-27T04:33:48.071Z,-1.10
2022-11-27T04:36:15.403Z,-1.00
2022-11-27T04:38:42.719Z,-0.80
2022-11-27T04:41:09.915Z,-0.80
2022-11-27T04:43:37.155Z,-0.90
2022-11-27T04:46:04.397Z,-0.90
2022-11-27T04:48:31.647Z,-1.00
2022-11-27T04:50:58.952Z,-1.00
2022-11-27T04:53:26.160Z,-0.90
2022-11-27T04:55:53.363Z,-0.90
2022-11-27T04:58:20.571Z,-0.90
2022-11-27T05:00:47.835Z,-1.10
2022-11-27T05:03:15.103Z,-1.00
2022-11-27T05:05:42.397Z,-1.10
2022-11-27T05:08:09.571Z,-1.10
2022-11-27T05:10:36.865Z,-1.10
2022-11-27T05:13:04.100Z,-1.00
2022-11-27T05:15:31.313Z,-0.80
2022-11-27T05:17:58.502Z,-0.70
2022-11-27T05:20:25.703Z,-0.80
2022-11-27T05:22:52.948Z,-1.00
2022-11-27T05:25:20.139Z,-1.20
2022-11-27T05:27:47.391Z,-1.20
2022-11-27T05:30:14.654Z,-1.20
2022-11-27T05:32:41.910Z,-1.20
2022-11-27T05:35:09.507Z,-1.10
2022-11-27T05:37:36.667Z,-1.20
2022-11-27T05:40:04.190Z,-1.20
2022-11-27T05:42:31.362Z,-1.20
2022-11-27T05:44:58.806Z,-1.40
2022-11-27T05:47:26.075Z,-1.40
2022-11-27T05:49:53.417Z,-1.50
2022-11-27T05:52:20.663Z,-1.60
2022-11-27T05:54:47.869Z,-1.50
2022-11-27T05:57:15.059Z,-1.30
2022-11-27T05:59:42.250Z,-1.30
2022-11-27T06:02:09.532Z,-1.30
2022-11-27T06:04:36.855Z,-1.50
2022-11-27T06:07:04.076Z,-1.70
2022-11-27T06:09:31.283Z,-1.90
2022-11-27T06:11:58.669Z,-1.90
2022-11-27T06:14:25.849Z,-1.90
2022-11-27T06:16:53.130Z,-1.90
2022-11-27T06:19:20.326Z,-2.00
2022-11-27T06:21:47.757Z,-1.90
2022-11-27T06:24:15.177Z,-1.90
2022-11-27T06:26:42.942Z,-1.90
2022-11-27T06:29:10.400Z,-1.80
2022-11-27T06:31:38.086Z,-1.80
2022-11-27T06:34:05.827Z,-1.80
2022-11-27T06:36:35.698Z,-1.80
2022-11-27T06:39:05.259Z,-1.70
2022-11-27T06:41:32.646Z,-1.70
2022-11-27T06:44:01.443Z,-1.70
2022-11-27T06:46:30.106Z,-1.70
2022-11-27T06:48:58.673Z,-1.80
2022-11-27T06:51:27.602Z,-1.70
2022-11-27T06:53:54.855Z,-1.80
2022-11-27T06:56:25.481Z,-1.80
2022-11-27T06:58:58.730Z,-1.80
2022-11-27T07:01:27.536Z,-1.70
2022-11-27T07:03:55.543Z,-1.60
2022-11-27T07:06:24.551Z,-1.60
2022-11-27T07:08:52.398Z,-1.60
2022-11-27T07:11:25.723Z,-1.60
2022-11-27T07:13:57.894Z,-1.50
2022-11-27T07:16:26.243Z,-1.50
2022-11-27T07:18:56.326Z,-1.40
2022-11-27T07:21:24.427Z,-1.30
2022-11-27T07:23:51.890Z,-1.30
2022-11-27T07:26:24.267Z,-1.20
2022-11-27T07:28:52.464Z,-1.10
2022-11-27T07:31:22.473Z,-1.00
2022-11-27T07:33:52.000Z,-0.90
2022-11-27T07:36:25.399Z,-0.80
2022-11-27T07:38:53.020Z,-0.70
2022-11-27T07:41:21.109Z,-0.60
2022-11-27T07:43:48.802Z,-0.50
2022-11-27T07:46:22.338Z,-0.40
2022-11-27T07:48:49.811Z,-0.30
2022-11-27T07:51:19.658Z,-0.30
2022-11-27T07:53:47.324Z,-0.10
2022-11-27T07:56:15.903Z,-0.10
2022-11-27T07:58:43.247Z,0.00
2022-11-27T08:01:16.149Z,0.10
2022-11-27T08:03:44.405Z,0.10
2022-11-27T08:06:19.243Z,0.10
2022-11-27T08:08:47.132Z,0.20
2022-11-27T08:11:25.937Z,0.20
2022-11-27T08:14:00.940Z,0.30
2022-11-27T08:16:29.426Z,0.40
2022-11-27T08:18:57.348Z,0.40
2022-11-27T08:21:24.925Z,0.50
2022-11-27T08:23:52.492Z,0.70
2022-11-27T08:26:21.040Z,0.80
2022-11-27T08:28:48.254Z,0.80
2022-11-27T08:31:15.805Z,0.90
2022-11-27T08:33:43.036Z,0.90
2022-11-27T08:36:16.299Z,1.00
2022-11-27T08:38:46.213Z,1.10
2022-11-27T08:41:13.714Z,1.10
2022-11-27T08:43:40.948Z,1.20
2022-11-27T08:46:08.464Z,1.30
2022-11-27T08:48:36.168Z,1.40
2022-11-27T08:51:09.008Z,1.50
2022-11-27T08:53:37.839Z,1.60
2022-11-27T08:56:11.851Z,1.70
2022-11-27T08:58:41.097Z,1.80
2022-11-27T09:01:35.724Z,1.90
2022-11-27T09:04:03.786Z,2.00
2022-11-27T09:06:36.310Z,2.20
2022-11-27T09:09:05.731Z,2.20
2022-11-27T09:11:34.549Z,2.30
2022-11-27T09:14:03.822Z,2.40
2022-11-27T09:16:31.549Z,2.50
2022-11-27T09:18:59.064Z,2.60
2022-11-27T09:21:28.358Z,2.70
2022-11-27T09:23:57.080Z,2.80
2022-11-27T09:26:26.446Z,2.90
2022-11-27T09:28:55.024Z,2.90
2022-11-27T09:31:23.141Z,2.90
2022-11-27T09:33:50.938Z,3.10
2022-11-27T09:36:21.160Z,3.20
2022-11-27T09:38:48.548Z,3.30
2022-11-27T09:41:44.852Z,3.30
2022-11-27T09:44:30.260Z,3.40
2022-11-27T09:47:01.551Z,3.40
2022-11-27T09:49:51.317Z,3.50
2022-11-27T09:52:24.592Z,3.60
2022-11-27T09:55:28.278Z,3.70
2022-11-27T09:58:01.856Z,3.80
2022-11-27T10:00:29.140Z,3.90
2022-11-27T10:02:56.720Z,3.90
2022-11-27T10:05:43.377Z,3.90
2022-11-27T10:08:26.201Z,4.00
2022-11-27T10:11:14.360Z,4.10
2022-11-27T10:13:56.576Z,4.30
2022-11-27T10:16:44.591Z,4.30
2022-11-27T10:19:26.235Z,4.30
2022-11-27T10:22:01.738Z,4.40
2022-11-27T10:24:36.588Z,4.60
2022-11-27T10:27:14.639Z,4.80
2022-11-27T10:29:54.031Z,4.90
2022-11-27T10:35:19.696Z,5.20
2022-11-27T10:37:52.951Z,5.00
2022-11-27T10:40:25.963Z,5.10
2022-11-27T10:43:11.028Z,5.00
2022-11-27T10:46:05.125Z,5.00
2022-11-27T10:48:33.642Z,5.10
2022-11-27T10:51:01.271Z,5.20
2022-11-27T10:53:37.454Z,5.20
2022-11-27T10:56:18.646Z,5.20
2022-11-27T10:59:05.947Z,5.20
2022-11-27T11:01:48.216Z,5.30
2022-11-27T11:04:41.477Z,5.30
2022-11-27T11:07:38.086Z,5.30
2022-11-27T11:10:23.991Z,5.30
2022-11-27T11:13:23.786Z,5.40
2022-11-27T11:15:51.974Z,5.40
2022-11-27T11:18:24.839Z,5.50
2022-11-27T11:20:55.551Z,5.60
2022-11-27T11:23:32.990Z,5.60
2022-11-27T11:26:22.457Z,5.60
2022-11-27T11:28:55.795Z,5.70
2022-11-27T11:31:31.082Z,5.70
2022-11-27T11:34:27.606Z,5.70
2022-11-27T11:37:08.425Z,5.70
2022-11-27T11:39:45.436Z,5.80
2022-11-27T11:42:21.427Z,5.80
2022-11-27T11:45:11.783Z,5.80
2022-11-27T11:47:47.401Z,5.80
2022-11-27T11:50:31.800Z,5.80
2022-11-27T11:53:36.407Z,5.90
2022-11-27T11:56:49.585Z,5.90
2022-11-27T11:59:45.180Z,6.00
2022-11-27T12:02:32.274Z,6.10
2022-11-27T12:05:21.560Z,6.10
2022-11-27T12:08:07.413Z,6.10
2022-11-27T12:11:22.784Z,6.00
2022-11-27T12:14:04.929Z,6.10
2022-11-27T12:17:02.786Z,6.10
2022-11-27T12:20:02.374Z,6.20
2022-11-27T12:22:40.427Z,6.20
2022-11-27T12:25:22.686Z,6.20
2022-11-27T12:28:11.284Z,6.20
2022-11-27T12:30:50.033Z,6.30
2022-11-27T12:33:38.353Z,6.30
2022-11-27T12:36:20.387Z,6.30
2022-11-27T12:38:50.616Z,6.30
2022-11-27T12:41:44.291Z,6.40
2022-11-27T12:44:48.924Z,6.40
2022-11-27T12:47:24.483Z,6.40
2022-11-27T12:50:03.210Z,6.40
2022-11-27T12:52:38.831Z,6.50
2022-11-27T12:55:12.745Z,6.40
2022-11-27T12:57:49.864Z,6.50
2022-11-27T13:00:24.086Z,6.40
2022-11-27T13:03:00.106Z,6.40
2022-11-27T13:05:32.285Z,6.40
2022-11-27T13:08:22.828Z,6.50
2022-11-27T13:10:58.561Z,6.40
2022-11-27T13:13:34.241Z,6.40
2022-11-27T13:16:06.555Z,6.40
2022-11-27T13:19:16.287Z,6.50
2022-11-27T13:21:46.509Z,6.50
2022-11-27T13:24:14.300Z,6.50
2022-11-27T13:27:06.703Z,6.50
2022-11-27T13:29:48.816Z,6.40
2022-11-27T13:32:23.826Z,6.40
2022-11-27T13:34:53.309Z,6.30
2022-11-27T13:37:33.132Z,6.30
2022-11-27T13:40:21.817Z,6.40
2022-11-27T13:42:55.717Z,6.40
2022-11-27T13:45:30.323Z,6.40
2022-11-27T13:47:59.841Z,6.30
2022-11-27T13:50:31.368Z,6.30
2022-11-27T13:53:07.471Z,6.30
2022-11-27T13:55:37.168Z,6.20
2022-11-27T13:58:07.234Z,6.20
2022-11-27T14:00:43.618Z,6.20
2022-11-27T14:03:26.661Z,6.20
2022-11-27T14:05:54.268Z,6.10
2022-11-27T14:08:30.043Z,6.10
2022-11-27T14:11:08.879Z,6.10
2022-11-27T14:13:54.407Z,6.00
2022-11-27T14:16:32.855Z,6.00
2022-11-27T14:19:06.813Z,5.90
2022-11-27T14:21:41.786Z,5.90
2022-11-27T14:24:44.037Z,5.80
2022-11-27T14:27:35.782Z,5.70
2022-11-27T14:30:39.795Z,5.70
2022-11-27T14:33:22.328Z,5.60
2022-11-27T14:35:55.355Z,5.40
2022-11-27T14:38:23.967Z,5.30
2022-11-27T14:40:55.882Z,5.20
2022-11-27T14:43:26.163Z,5.10
2022-11-27T14:45:56.820Z,5.00
2022-11-27T14:48:26.660Z,4.80
2022-11-27T14:50:55.904Z,4.60
2022-11-27T14:53:25.587Z,4.50
2022-11-27T14:55:56.263Z,4.40
2022-11-27T14:58:29.982Z,4.40
2022-11-27T15:01:01.286Z,4.30
2022-11-27T15:03:29.385Z,4.20
2022-11-27T15:06:05.460Z,4.00
2022-11-27T15:08:36.196Z,4.00
2022-11-27T15:11:05.409Z,3.90
2022-11-27T15:13:37.473Z,3.80
2022-11-27T15:16:13.244Z,3.70
2022-11-27T15:18:42.345Z,3.70
2022-11-27T15:21:17.917Z,3.70
2022-11-27T15:23:49.867Z,3.60
2022-11-27T15:26:29.663Z,3.40
2022-11-27T15:28:59.848Z,3.40
2022-11-27T15:31:33.083Z,3.40
2022-11-27T15:34:03.905Z,3.30
2022-11-27T15:36:41.909Z,3.20
2022-11-27T15:39:36.868Z,3.20
2022-11-27T15:42:08.918Z,3.10
2022-11-27T15:44:36.287Z,3.00
2022-11-27T15:47:05.897Z,3.00
2022-11-27T15:49:33.714Z,2.90
2022-11-27T15:52:01.001Z,3.00
2022-11-27T15:54:28.300Z,3.00
2022-11-27T15:56:55.517Z,2.90
2022-11-27T15:59:22.964Z,2.80
2022-11-27T16:01:50.295Z,2.80
2022-11-27T16:04:17.797Z,2.70
2022-11-27T16:06:44.963Z,2.60
2022-11-27T16:09:12.308Z,2.50
2022-11-27T16:11:39.577Z,2.40
2022-11-27T16:14:07.451Z,2.40
2022-11-27T16:16:35.425Z,2.40
2022-11-27T16:19:06.371Z,2.30
2022-11-27T16:21:35.704Z,2.30
2022-11-27T16:24:06.543Z,2.10
2022-11-27T16:26:34.440Z,2.00
2022-11-27T16:29:01.712Z,2.00
2022-11-27T16:31:29.187Z,2.00
2022-11-27T16:33:56.500Z,2.00
2022-11-27T16:36:24.152Z,2.10
2022-11-27T16:38:54.398Z,2.10
2022-11-27T16:41:22.435Z,2.10
2022-11-27T16:43:52.039Z,2.10
2022-11-27T16:46:22.341Z,2.10
2022-11-27T16:48:50.119Z,2.00
2022-11-27T16:51:23.557Z,2.10
2022-11-27T16:53:55.418Z,2.10
2022-11-27T16:56:25.112Z,2.10
2022-11-27T16:58:54.060Z,2.10
2022-11-27T17:01:30.462Z,2.00
2022-11-27T17:03:58.042Z,2.00
2022-11-27T17:06:27.773Z,2.00
2022-11-27T17:08:56.740Z,1.80
2022-11-27T17:11:27.311Z,1.80
2022-11-27T17:13:58.131Z,1.80
2022-11-27T17:16:25.701Z,1.70
2022-11-27T17:18:53.333Z,1.70
2022-11-27T17:21:25.293Z,1.70
2022-11-27T17:23:55.922Z,1.80
2022-11-27T17:26:24.411Z,1.90
2022-11-27T17:28:55.590Z,1.90
2022-11-27T17:31:25.707Z,2.00
2022-11-27T17:33:56.733Z,2.00
2022-11-27T17:36:31.407Z,2.00
2022-11-27T17:39:05.663Z,1.90
2022-11-27T17:41:33.437Z,1.90
2022-11-27T17:44:00.731Z,1.90
2022-11-27T17:46:29.309Z,2.00
2022-11-27T17:48:59.999Z,2.00
2022-11-27T17:51:29.967Z,1.90
2022-11-27T17:54:02.347Z,1.70
2022-11-27T17:56:30.180Z,1.70
2022-11-27T17:58:58.041Z,1.70
2022-11-27T18:01:27.117Z,1.60
2022-11-27T18:04:00.619Z,1.70
2022-11-27T18:06:28.021Z,1.70
2022-11-27T18:08:57.435Z,1.60
2022-11-27T18:11:28.451Z,1.60
2022-11-27T18:13:55.927Z,1.60
2022-11-27T18:16:29.770Z,1.70
2022-11-27T18:18:58.485Z,1.70
2022-11-27T18:21:30.428Z,1.80
2022-11-27T18:29:34.680Z,1.90
2022-11-27T18:32:02.085Z,1.80
2022-11-27T18:34:29.326Z,1.70
2022-11-27T18:36:59.501Z,1.80
2022-11-27T18:39:27.895Z,1.90
2022-11-27T18:41:56.559Z,1.90
2022-11-27T18:44:23.758Z,1.90
2022-11-27T18:46:51.276Z,1.90
2022-11-27T18:49:18.979Z,1.90
2022-11-27T18:51:46.269Z,1.80
2022-11-27T18:54:13.438Z,1.80
2022-11-27T18:56:40.739Z,1.90
2022-11-27T18:59:07.951Z,1.90
2022-11-27T19:01:42.023Z,1.90
2022-11-27T19:04:11.082Z,1.80
2022-11-27T19:06:42.200Z,1.80
2022-11-27T19:09:11.122Z,1.80
2022-11-27T19:11:38.817Z,1.90
2022-11-27T19:14:06.355Z,1.90
2022-11-27T19:16:36.708Z,1.90
2022-11-27T19:19:05.269Z,1.80
2022-11-27T19:21:33.291Z,1.80
2022-11-27T19:24:02.656Z,1.80
2022-11-27T19:26:32.629Z,1.70
2022-11-27T19:29:02.626Z,1.70
2022-11-27T19:31:33.171Z,1.70
2022-11-27T19:34:02.673Z,1.70
2022-11-27T19:36:31.568Z,1.70
2022-11-27T19:39:04.376Z,1.70
2022-11-27T19:41:31.787Z,1.70
2022-11-27T19:44:06.636Z,1.70
2022-11-27T19:46:36.934Z,1.70
2022-11-27T19:49:12.897Z,1.70
2022-11-27T19:51:40.623Z,1.60
2022-11-27T19:54:10.566Z,1.50
2022-11-27T19:56:40.105Z,1.40
2022-11-27T19:59:07.895Z,1.40
2022-11-27T20:01:37.626Z,1.40
2022-11-27T20:04:07.267Z,1.30
2022-11-27T20:06:36.051Z,1.30
2022-11-27T20:09:05.703Z,1.30
2022-11-27T20:11:35.142Z,1.30
2022-11-27T20:14:04.646Z,1.20
2022-11-27T20:16:32.827Z,1.10
2022-11-27T20:19:01.916Z,1.10
2022-11-27T20:21:29.479Z,1.10
2022-11-27T20:23:57.319Z,1.20
2022-11-27T20:26:27.277Z,1.20
2022-11-27T20:28:55.399Z,1.20
2022-11-27T20:31:29.162Z,1.20
2022-11-27T20:34:00.631Z,1.20
2022-11-27T20:36:29.883Z,1.20
2022-11-27T20:38:59.309Z,1.20
2022-11-27T20:41:27.352Z,1.30
2022-11-27T20:43:57.333Z,1.30
2022-11-27T20:46:25.695Z,1.40
2022-11-27T20:48:54.001Z,1.40
2022-11-27T20:51:24.397Z,1.40
2022-11-27T20:53:51.930Z,1.50
2022-11-27T20:56:20.362Z,1.50
2022-11-27T20:58:48.732Z,1.40
2022-11-27T21:01:17.363Z,1.40
2022-11-27T21:03:46.302Z,1.30
2022-11-27T21:06:15.370Z,1.30
2022-11-27T21:08:42.761Z,1.40
2022-11-27T21:11:27.879Z,1.40
2022-11-27T21:13:57.301Z,1.40
2022-11-27T21:16:27.350Z,1.50
2022-11-27T21:18:59.452Z,1.50
2022-11-27T21:21:26.952Z,1.50
2022-11-27T21:23:54.903Z,1.50
2022-11-27T21:26:22.541Z,1.40
2022-11-27T21:28:50.378Z,1.30
2022-11-27T21:31:26.019Z,1.40
2022-11-27T21:33:55.144Z,1.40
2022-11-27T21:36:25.736Z,1.30
2022-11-27T21:38:53.110Z,1.20
2022-11-27T21:41:20.948Z,1.10
2022-11-27T21:43:49.145Z,1.20
2022-11-27T21:46:19.063Z,1.20
2022-11-27T21:48:47.546Z,1.20
2022-11-27T21:51:15.834Z,1.20
2022-11-27T21:53:44.772Z,1.30
2022-11-27T21:56:14.615Z,1.30
2022-11-27T21:58:42.802Z,1.30
2022-11-27T22:01:15.658Z,1.40
2022-11-27T22:03:43.495Z,1.50
2022-11-27T22:06:13.612Z,1.50
2022-11-27T22:08:42.458Z,1.40
2022-11-27T22:11:12.413Z,1.30
2022-11-27T22:13:39.758Z,1.30
2022-11-27T22:16:17.848Z,1.20
2022-11-27T22:18:45.330Z,1.10
2022-11-27T22:21:13.800Z,1.00
2022-11-27T22:23:41.853Z,1.00
2022-11-27T22:26:14.345Z,1.10
2022-11-27T22:28:41.821Z,1.20
2022-11-27T22:31:29.998Z,1.00
2022-11-27T22:33:57.963Z,0.90
2022-11-27T22:36:31.354Z,0.90
2022-11-27T22:39:00.926Z,1.00
2022-11-27T22:41:30.509Z,0.90
2022-11-27T22:44:00.318Z,0.90
2022-11-27T22:46:32.662Z,0.70
2022-11-27T22:49:02.323Z,0.60
2022-11-27T22:51:31.474Z,0.60
2022-11-27T22:53:58.968Z,0.70
2022-11-27T22:56:26.264Z,0.60
2022-11-27T22:59:11.412Z,0.40
2022-11-27T23:01:41.049Z,0.40
2022-11-27T23:04:08.437Z,0.50
2022-11-27T23:06:36.114Z,0.40
2022-11-27T23:09:03.686Z,0.50
2022-11-27T23:11:31.001Z,0.40
2022-11-27T23:13:59.662Z,0.50
2022-11-27T23:16:27.101Z,0.60
2022-11-27T23:18:54.358Z,0.60
2022-11-27T23:21:24.042Z,0.50
2022-11-27T23:23:51.803Z,0.50
2022-11-27T23:26:23.772Z,0.50
2022-11-27T23:28:52.703Z,0.50
2022-11-27T23:31:29.808Z,0.50
2022-11-27T23:33:58.840Z,0.50
2022-11-27T23:36:26.892Z,0.30
2022-11-27T23:38:54.067Z,0.30
2022-11-27T23:41:24.057Z,0.10
2022-11-27T23:43:53.057Z,0.00
2022-11-27T23:46:22.946Z,0.00
2022-11-27T23:48:50.567Z,-0.10
2022-11-27T23:51:20.792Z,0.00
2022-11-27T23:53:48.277Z,0.00
2022-11-27T23:56:18.183Z,0.20
2022-11-27T23:58:47.651Z,0.30
